createdAt,value
2018-07-06T00:01:57.920Z,95.00
2018-07-06T00:04:37.960Z,95.10
2018-07-06T00:07:18.132Z,95.20
2018-07-06T00:09:58.386Z,95.00
2018-07-06T00:12:38.524Z,94.90
2018-07-06T00:15:18.837Z,94.90
2018-07-06T00:17:59.108Z,94.90
2018-07-06T00:20:39.507Z,94.90
2018-07-06T00:23:19.769Z,94.90
2018-07-06T00:25:59.897Z,94.80
2018-07-06T00:28:40.160Z,95.00
2018-07-06T00:31:20.540Z,94.70
2018-07-06T00:34:00.568Z,94.40
2018-07-06T00:36:40.982Z,94.10
2018-07-06T00:39:21.215Z,93.80
2018-07-06T00:42:01.511Z,93.70
2018-07-06T00:44:41.791Z,93.40
2018-07-06T00:47:21.977Z,93.60
2018-07-06T00:50:02.208Z,93.50
2018-07-06T00:52:42.702Z,93.70
2018-07-06T00:55:22.906Z,93.50
2018-07-06T00:58:03.184Z,93.60
2018-07-06T01:00:43.524Z,93.10
2018-07-06T01:03:23.745Z,92.90
2018-07-06T01:06:03.955Z,92.90
2018-07-06T01:08:44.176Z,92.70
2018-07-06T01:11:24.589Z,92.90
2018-07-06T01:14:04.804Z,92.70
2018-07-06T01:16:45.112Z,92.50
2018-07-06T01:19:25.240Z,92.50
2018-07-06T01:22:05.644Z,92.60
2018-07-06T01:24:45.816Z,92.60
2018-07-06T01:27:26.108Z,92.70
2018-07-06T01:30:06.473Z,92.50
2018-07-06T01:32:46.742Z,92.70
2018-07-06T01:35:27.025Z,92.60
2018-07-06T01:38:07.553Z,93.10
2018-07-06T01:40:47.910Z,93.50
2018-07-06T01:43:28.140Z,93.60
2018-07-06T01:46:08.212Z,94.00
2018-07-06T01:48:48.617Z,94.00
2018-07-06T01:51:29.025Z,93.60
2018-07-06T01:54:09.375Z,94.10
2018-07-06T01:56:49.493Z,94.60
2018-07-06T01:59:29.647Z,94.30
2018-07-06T02:02:09.901Z,93.90
2018-07-06T02:04:49.989Z,93.70
2018-07-06T02:07:30.548Z,93.80
2018-07-06T02:10:10.830Z,93.00
2018-07-06T02:12:51.372Z,92.70
2018-07-06T02:15:31.420Z,92.60
2018-07-06T02:18:11.604Z,92.40
2018-07-06T02:20:51.894Z,92.20
2018-07-06T02:23:32.168Z,91.90
2018-07-06T02:26:12.489Z,92.10
2018-07-06T02:28:52.814Z,92.10
2018-07-06T02:31:33.056Z,92.10
2018-07-06T02:34:13.348Z,92.20
2018-07-06T02:36:53.491Z,92.30
2018-07-06T02:39:33.553Z,91.70
2018-07-06T02:42:13.664Z,91.90
2018-07-06T02:44:53.828Z,91.90
2018-07-06T02:47:34.072Z,92.20
2018-07-06T02:50:14.048Z,92.00
2018-07-06T02:52:54.329Z,92.10
2018-07-06T02:55:34.673Z,92.30
2018-07-06T02:58:15.025Z,92.40
2018-07-06T03:00:55.341Z,92.50
2018-07-06T03:03:35.557Z,92.50
2018-07-06T03:06:15.884Z,92.30
2018-07-06T03:08:56.262Z,92.30
2018-07-06T03:11:36.474Z,92.20
2018-07-06T03:14:16.693Z,92.20
2018-07-06T03:16:57.004Z,92.30
2018-07-06T03:19:37.115Z,92.10
2018-07-06T03:22:17.403Z,92.50
2018-07-06T03:24:57.793Z,92.50
2018-07-06T03:27:37.948Z,92.70
2018-07-06T03:30:18.277Z,92.80
2018-07-06T03:32:58.759Z,92.80
2018-07-06T03:35:38.793Z,92.70
2018-07-06T03:38:19.152Z,92.50
2018-07-06T03:40:59.457Z,92.60
2018-07-06T03:43:39.737Z,92.60
2018-07-06T03:46:19.804Z,92.80
2018-07-06T03:49:00.183Z,92.80
2018-07-06T03:51:40.564Z,92.90
2018-07-06T03:54:20.737Z,92.60
2018-07-06T03:59:35.164Z,93.10
2018-07-06T04:02:15.410Z,92.50
2018-07-06T04:04:55.568Z,92.60
2018-07-06T04:07:35.748Z,92.60
2018-07-06T04:10:16.077Z,92.70
2018-07-06T04:12:56.322Z,92.70
2018-07-06T04:15:36.579Z,92.60
2018-07-06T04:18:16.868Z,92.00
2018-07-06T04:20:57.182Z,91.80
2018-07-06T04:23:37.684Z,90.80
2018-07-06T04:26:17.836Z,90.20
2018-07-06T04:28:58.048Z,90.10
2018-07-06T04:31:38.450Z,90.10
2018-07-06T04:34:18.679Z,89.90
2018-07-06T04:36:58.993Z,89.40
2018-07-06T04:39:39.297Z,89.20
2018-07-06T04:42:19.568Z,89.00
2018-07-06T04:44:59.970Z,89.00
2018-07-06T04:47:40.169Z,89.30
2018-07-06T04:50:20.653Z,89.30
2018-07-06T04:53:00.831Z,89.10
2018-07-06T04:55:40.992Z,89.00
2018-07-06T04:58:21.281Z,88.30
2018-07-06T05:01:01.491Z,88.00
2018-07-06T05:03:41.694Z,88.10
2018-07-06T05:08:55.844Z,87.70
2018-07-06T05:11:36.156Z,87.70
2018-07-06T05:14:16.537Z,88.10
2018-07-06T05:16:56.599Z,88.40
2018-07-06T05:19:36.739Z,88.70
2018-07-06T05:22:16.976Z,88.40
2018-07-06T05:24:57.172Z,88.20
2018-07-06T05:27:37.548Z,87.90
2018-07-06T05:30:18.152Z,87.40
2018-07-06T05:32:58.389Z,87.50
2018-07-06T05:35:38.772Z,87.00
2018-07-06T05:38:18.995Z,86.50
2018-07-06T05:40:59.241Z,86.00
2018-07-06T05:43:39.645Z,86.00
2018-07-06T05:46:19.780Z,86.30
2018-07-06T05:49:00.031Z,86.30
2018-07-06T05:51:40.111Z,86.00
2018-07-06T05:54:20.357Z,85.70
2018-07-06T05:57:00.718Z,85.40
2018-07-06T05:59:40.661Z,85.00
2018-07-06T06:02:20.846Z,84.60
2018-07-06T06:05:01.025Z,84.50
2018-07-06T06:07:28.813Z,84.40
2018-07-06T06:09:57.661Z,84.10
2018-07-06T06:12:26.599Z,83.70
2018-07-06T06:14:55.916Z,83.80
2018-07-06T06:17:25.001Z,83.60
2018-07-06T06:19:53.793Z,83.70
2018-07-06T06:22:22.732Z,83.40
2018-07-06T06:24:51.629Z,83.20
2018-07-06T06:27:20.496Z,83.00
2018-07-06T06:29:50.433Z,82.40
2018-07-06T06:32:19.752Z,82.30
2018-07-06T06:34:48.716Z,81.90
2018-07-06T06:37:17.684Z,81.50
2018-07-06T06:39:46.746Z,81.30
2018-07-06T06:42:15.590Z,82.40
2018-07-06T06:44:44.484Z,83.10
2018-07-06T06:47:13.345Z,81.80
2018-07-06T06:49:42.219Z,81.30
2018-07-06T06:52:11.061Z,81.50
2018-07-06T06:54:39.948Z,80.70
2018-07-06T06:57:08.819Z,80.70
2018-07-06T06:59:37.716Z,80.10
2018-07-06T07:02:06.584Z,80.40
2018-07-06T07:04:35.453Z,80.00
2018-07-06T07:07:04.379Z,79.60
2018-07-06T07:12:01.711Z,78.40
2018-07-06T07:14:30.591Z,78.30
2018-07-06T07:16:59.824Z,77.70
2018-07-06T09:47:14.083Z,60.90
2018-07-06T16:51:16.832Z,28.90
2018-07-06T16:53:45.717Z,37.00
2018-07-06T16:56:14.608Z,37.10
2018-07-06T16:58:43.556Z,37.90
2018-07-06T17:01:12.573Z,38.50
2018-07-06T17:03:41.404Z,38.90
2018-07-06T17:06:10.259Z,37.50
2018-07-06T17:08:39.082Z,36.70
2018-07-06T17:11:07.937Z,37.80
2018-07-06T17:13:36.784Z,37.30
2018-07-06T17:16:05.688Z,38.40
2018-07-06T17:18:34.601Z,39.60
2018-07-06T17:21:03.553Z,39.00
2018-07-06T17:23:32.512Z,38.70
2018-07-06T17:26:01.357Z,40.30
2018-07-06T17:28:30.195Z,39.30
2018-07-06T17:30:59.166Z,38.80
2018-07-06T17:33:28.037Z,39.40
2018-07-06T17:35:56.816Z,39.30
2018-07-06T17:38:25.634Z,39.40
2018-07-06T17:40:54.484Z,39.50
2018-07-06T17:43:23.324Z,40.60
2018-07-06T17:45:52.205Z,41.40
2018-07-06T17:48:20.989Z,41.80
2018-07-06T17:50:49.906Z,42.70
2018-07-06T17:53:18.785Z,41.70
2018-07-06T17:55:47.708Z,41.90
2018-07-06T17:58:16.500Z,43.00
2018-07-06T18:00:45.440Z,42.50
2018-07-06T18:03:14.284Z,42.40
2018-07-06T18:05:43.120Z,42.50
2018-07-06T18:08:12.175Z,43.60
2018-07-06T18:10:41.038Z,44.60
2018-07-06T18:13:09.956Z,42.80
2018-07-06T18:15:38.927Z,43.60
2018-07-06T18:18:07.839Z,43.50
2018-07-06T18:20:36.720Z,43.80
2018-07-06T18:23:05.785Z,43.50
2018-07-06T18:25:34.595Z,43.30
2018-07-06T18:28:03.697Z,43.60
2018-07-06T18:30:32.597Z,44.30
2018-07-06T18:33:01.538Z,44.40
2018-07-06T18:35:30.425Z,44.70
2018-07-06T18:37:59.253Z,43.80
2018-07-06T18:40:28.154Z,44.30
2018-07-06T18:42:57.045Z,46.10
2018-07-06T18:45:26.623Z,44.40
2018-07-06T18:47:55.430Z,44.80
2018-07-06T18:50:24.235Z,44.20
2018-07-06T18:52:53.068Z,44.20
2018-07-06T18:55:21.884Z,44.80
2018-07-06T18:57:50.842Z,44.30
2018-07-06T19:00:19.759Z,45.80
2018-07-06T19:02:48.711Z,45.80
2018-07-06T19:05:17.625Z,44.70
2018-07-06T19:07:46.459Z,45.80
2018-07-06T19:10:15.356Z,45.70
2018-07-06T19:12:44.200Z,46.00
2018-07-06T19:15:13.005Z,45.40
2018-07-06T19:17:41.933Z,46.80
2018-07-06T19:20:10.941Z,46.60
2018-07-06T19:22:39.837Z,46.40
2018-07-06T19:25:08.861Z,46.70
2018-07-06T19:27:38.304Z,47.60
2018-07-06T19:30:07.292Z,46.80
2018-07-06T19:32:36.193Z,47.10
2018-07-06T19:35:05.104Z,47.20
2018-07-06T19:37:34.129Z,47.70
2018-07-06T19:40:02.928Z,47.80
2018-07-06T19:42:31.840Z,47.80
2018-07-06T19:45:00.788Z,48.20
2018-07-06T19:47:29.736Z,48.90
2018-07-06T19:49:58.653Z,49.00
2018-07-06T19:52:27.672Z,49.60
2018-07-06T19:54:56.592Z,49.20
2018-07-06T19:57:25.754Z,48.30
2018-07-06T19:59:54.576Z,48.70
2018-07-06T20:02:23.555Z,48.80
2018-07-06T20:04:52.395Z,49.10
2018-07-06T20:07:21.284Z,48.80
2018-07-06T20:09:50.090Z,49.00
2018-07-06T20:12:20.022Z,48.90
2018-07-06T20:14:48.880Z,49.30
2018-07-06T20:17:17.868Z,50.90
2018-07-06T20:19:46.703Z,49.00
2018-07-06T20:22:15.614Z,49.10
2018-07-06T20:24:44.568Z,49.00
2018-07-06T20:27:13.393Z,49.00
2018-07-06T20:29:42.224Z,49.10
2018-07-06T20:32:11.081Z,49.20
2018-07-06T20:34:39.932Z,49.40
2018-07-06T20:37:08.896Z,49.40
2018-07-06T20:39:37.873Z,49.50
2018-07-06T20:42:06.945Z,49.30
2018-07-06T20:44:35.751Z,49.40
2018-07-06T20:47:04.812Z,50.10
2018-07-06T20:49:33.658Z,49.40
2018-07-06T20:52:02.641Z,49.70
2018-07-06T20:54:31.552Z,49.80
2018-07-06T20:57:00.556Z,50.80
2018-07-06T20:59:29.474Z,49.90
2018-07-06T21:01:58.494Z,50.00
2018-07-06T21:04:27.547Z,50.40
2018-07-06T21:06:56.361Z,50.60
2018-07-06T21:09:25.399Z,51.40
2018-07-06T21:11:54.404Z,51.60
2018-07-06T21:14:23.294Z,50.90
2018-07-06T21:16:52.188Z,51.00
2018-07-06T21:19:21.013Z,51.30
2018-07-06T21:21:49.840Z,51.30
2018-07-06T21:24:18.631Z,51.70
2018-07-06T21:26:47.452Z,52.00
2018-07-06T21:29:16.293Z,52.30
2018-07-06T21:31:45.287Z,52.50
